East Middlebury, VT

10:01 PM EST on January 24, 2017 (GMT -0500)
Middlebury State AP, Middlebu

Weather History for K6B0 - April, 2014

Change the Weather History Date:

Wednesday, April 16, 2014

  Actual Average (KRUT) Record (KRUT)
Temperature  
Mean Temperature 26 °F -  
Max Temperature 32 °F 57 °F 88 °F (2012)
Min Temperature 20 °F 35 °F 19 °F (1992)
Degree Days  
Heating Degree Days 39    
Moisture  
Dew Point 18 °F    
Average Humidity 74    
Maximum Humidity 100    
Minimum Humidity 45    
Precipitation  
Precipitation 0.03 in - - ()
Sea Level Pressure  
Sea Level Pressure 30.32 in    
Wind  
Wind Speed 8 mph (WNW)    
Max Wind Speed 14 mph    
Max Gust Speed 21 mph    
Visibility 10 miles    
Events Snow    
Averages and records for this station are not official NWS values.
T = Trace of Precipitation, MM = Missing Value Source: NWS Daily Summary

Daily Weather History Graph

Daily Weather History Graph

Search for Another Location

Airport or City:

Trip Planner

Search our weather history database for the weather conditions in past years. The results will help you decide how hot, cold, wet, or windy it might be!

Date:

Astronomy

Apr. 16, 2014 Rise Set
Actual Time 6:07 AM EDT 7:37 PM EDT
Civil Twilight 5:37 AM EDT 8:07 PM EDT
Nautical Twilight 5:01 AM EDT 8:44 PM EDT
Astronomical Twilight 4:22 AM EDT 9:23 PM EDT
Moon 9:21 PM EDT (4/16) 6:51 AM EDT (4/16)
Length of Visible Light 14h 30m
Length of Day
13h 29m
Full, 98% of the Moon is Illuminated
Apr 16
Full
Apr 22
Last Quarter
Apr 29
New
May 6
First Quarter
May 14
Full

Hourly Weather History & Observations

Time (EDT) Temp. Windchill Dew Point Humidity Pressure Visibility Wind Dir Wind Speed Gust Speed Precip Events Conditions
12:15 AM 29.1 °F 20.0 °F 29.1 °F 100% 29.87 in 0.8 mi WNW 10.4 mph 20.7 mph 0.02 in Snow Snow
12:35 AM 28.6 °F 19.9 °F 28.6 °F 100% 29.90 in 0.5 mi WNW 9.2 mph 18.4 mph 0.02 in Snow Heavy Snow
12:55 AM 28.4 °F 18.5 °F 28.4 °F 100% 29.91 in 1.8 mi WNW 11.5 mph 17.3 mph 0.03 in Snow Light Snow
1:15 AM 28.0 °F 18.1 °F 27.5 °F 98% 29.92 in 10.0 mi NW 11.5 mph 17.3 mph N/A   Overcast
1:35 AM 27.9 °F 19.1 °F 26.8 °F 96% 29.94 in 10.0 mi WNW 9.2 mph 16.1 mph N/A   Overcast
1:55 AM 27.5 °F 18.6 °F 25.7 °F 93% 29.95 in 10.0 mi WNW 9.2 mph - N/A   Overcast
2:15 AM 26.4 °F 16.6 °F 23.0 °F 87% 29.95 in 10.0 mi West 10.4 mph - N/A   Mostly Cloudy
2:35 AM 25.7 °F 17.1 °F 23.0 °F 89% 29.99 in 10.0 mi NW 8.1 mph - N/A   Mostly Cloudy
2:55 AM 24.4 °F 18.6 °F 21.2 °F 87% 30.01 in 10.0 mi WNW 4.6 mph - N/A   Overcast
3:15 AM 24.4 °F 15.6 °F 21.2 °F 87% 30.02 in 10.0 mi WNW 8.1 mph - N/A   Overcast
3:35 AM 23.7 °F 14.7 °F 20.3 °F 87% 30.01 in 10.0 mi WNW 8.1 mph - N/A   Scattered Clouds
3:55 AM 23.4 °F 15.2 °F 20.1 °F 87% 30.02 in 10.0 mi WNW 6.9 mph - N/A   Scattered Clouds
4:15 AM 23.0 °F 13.9 °F 19.4 °F 86% 30.04 in 10.0 mi WNW 8.1 mph - N/A   Scattered Clouds
4:35 AM 22.8 °F 13.6 °F 18.9 °F 85% 30.04 in 10.0 mi NW 8.1 mph - N/A   Scattered Clouds
4:55 AM 22.6 °F 13.4 °F 18.7 °F 85% 30.02 in 10.0 mi NW 8.1 mph - N/A   Scattered Clouds
5:15 AM 22.5 °F 16.3 °F 19.0 °F 87% 30.12 in 10.0 mi WNW 4.6 mph - N/A   Scattered Clouds
5:35 AM 22.1 °F 17.4 °F 19.2 °F 89% 30.13 in 10.0 mi WNW 3.5 mph - N/A   Clear
5:55 AM 21.7 °F 13.2 °F 18.5 °F 87% 30.12 in 10.0 mi West 6.9 mph - N/A   Clear
6:15 AM 21.0 °F 12.4 °F 16.7 °F 83% 30.12 in 10.0 mi WNW 6.9 mph - N/A   Clear
6:35 AM 20.5 °F 12.8 °F 16.2 °F 83% 30.14 in 10.0 mi West 5.8 mph - N/A   Scattered Clouds
6:55 AM 20.3 °F 15.4 °F 16.3 °F 85% 30.17 in 10.0 mi NW 3.5 mph - N/A   Scattered Clouds
7:15 AM 20.1 °F 13.6 °F 16.3 °F 85% 30.19 in 10.0 mi WNW 4.6 mph - N/A   Clear
7:35 AM 21.6 °F 16.8 °F 16.5 °F 81% 30.22 in 10.0 mi West 3.5 mph - N/A   Clear
7:55 AM 22.1 °F 14.7 °F 16.7 °F 80% 30.23 in 10.0 mi NW 5.8 mph - N/A   Clear
8:15 AM 23.0 °F 15.8 °F 15.8 °F 74% 30.25 in 10.0 mi NW 5.8 mph - N/A   Clear
8:35 AM 23.2 °F 15.0 °F 14.7 °F 70% 30.27 in 7.0 mi WNW 6.9 mph 16.1 mph N/A   Clear
8:55 AM 23.5 °F 13.7 °F 14.0 °F 67% 30.29 in 10.0 mi WNW 9.2 mph - N/A   Clear
9:15 AM 23.9 °F 14.2 °F 14.7 °F 68% 30.29 in 10.0 mi NW 9.2 mph - N/A   Clear
9:35 AM 24.4 °F 14.9 °F 15.6 °F 69% 30.31 in 10.0 mi NW 9.2 mph - N/A   Clear
9:55 AM 24.6 °F 13.2 °F 14.7 °F 66% 30.32 in 10.0 mi NW 12.7 mph 18.4 mph N/A   Scattered Clouds
10:15 AM 25.3 °F 14.7 °F 14.5 °F 64% 30.33 in 10.0 mi WNW 11.5 mph 18.4 mph N/A   Scattered Clouds
10:35 AM 25.5 °F 13.8 °F 13.3 °F 60% 30.35 in 10.0 mi WNW 13.8 mph 17.3 mph N/A   Scattered Clouds
10:55 AM 25.7 °F 14.0 °F 12.9 °F 58% 30.35 in 10.0 mi NW 13.8 mph 18.4 mph N/A   Clear
11:15 AM 26.4 °F 16.6 °F 14.7 °F 61% 30.36 in 10.0 mi WNW 10.4 mph - N/A   Scattered Clouds
11:35 AM 26.6 °F 16.2 °F 14.5 °F 60% 30.37 in 10.0 mi WNW 11.5 mph 16.1 mph N/A   Scattered Clouds
11:55 AM 27.1 °F 18.9 °F 14.7 °F 60% 30.39 in 10.0 mi WNW 8.1 mph - N/A   Scattered Clouds
12:15 PM 27.7 °F 18.8 °F 14.7 °F 58% 30.40 in 10.0 mi WNW 9.2 mph - N/A   Scattered Clouds
12:35 PM 28.4 °F 22.2 °F 14.9 °F 57% 30.42 in 10.0 mi WNW 5.8 mph - N/A   Scattered Clouds
12:55 PM 28.4 °F 19.1 °F 13.5 °F 54% 30.42 in 10.0 mi NW 10.4 mph 16.1 mph N/A   Clear
1:15 PM 29.1 °F 23.0 °F 14.2 °F 54% 30.43 in 10.0 mi NNW 5.8 mph 9.2 mph N/A   Clear
1:35 PM 29.3 °F 21.5 °F 12.9 °F 51% 30.44 in 10.0 mi NW 8.1 mph - N/A   Clear
2:15 PM 30.2 °F 22.6 °F 13.8 °F 51% 30.45 in 10.0 mi NNW 8.1 mph - N/A   Clear
2:35 PM 30.7 °F 22.6 °F 13.3 °F 48% 30.44 in 10.0 mi NW 9.2 mph - N/A   Clear
2:55 PM 30.9 °F 23.5 °F 14.0 °F 50% 30.44 in 10.0 mi WNW 8.1 mph - N/A   Clear
3:15 PM 31.6 °F 23.1 °F 15.3 °F 51% 30.44 in 10.0 mi NW 10.4 mph - N/A   Clear
3:35 PM 31.8 °F 24.6 °F 13.5 °F 47% 30.45 in 10.0 mi NW 8.1 mph - N/A   Clear
3:55 PM 32.0 °F 23.6 °F 13.3 °F 46% 30.45 in 10.0 mi NW 10.4 mph 16.1 mph N/A   Clear
4:15 PM 32.2 °F 25.0 °F 13.5 °F 46% 30.46 in 10.0 mi WNW 8.1 mph - N/A   Clear
4:35 PM 32.2 °F 25.0 °F 13.6 °F 46% 30.46 in 10.0 mi WNW 8.1 mph - N/A   Clear
4:55 PM 32.2 °F 23.8 °F 14.2 °F 48% 30.47 in 10.0 mi NW 10.4 mph - N/A   Clear
5:15 PM 32.0 °F 24.8 °F 13.8 °F 47% 30.46 in 10.0 mi NW 8.1 mph - N/A   Clear
5:35 PM 32.0 °F 26.4 °F 13.6 °F 47% 30.47 in 10.0 mi WNW 5.8 mph - N/A   Clear
5:55 PM 32.4 °F 26.9 °F 13.3 °F 45% 30.47 in 10.0 mi West 5.8 mph - N/A   Clear
6:15 PM 32.0 °F 26.4 °F 14.0 °F 48% 30.48 in 10.0 mi WNW 5.8 mph - N/A   Clear
6:35 PM 32.0 °F 26.4 °F 13.8 °F 47% 30.50 in 10.0 mi West 5.8 mph - N/A   Clear
6:55 PM 31.3 °F 26.6 °F 14.4 °F 50% 30.50 in 10.0 mi West 4.6 mph - N/A   Clear
7:15 PM 30.0 °F - 16.0 °F 56% 30.51 in 10.0 mi Calm Calm - N/A   Clear
7:35 PM 29.5 °F - 17.6 °F 61% 30.52 in 10.0 mi Calm Calm - N/A   Clear
7:55 PM 27.3 °F - 22.1 °F 81% 30.53 in 10.0 mi Calm Calm - N/A   Clear
8:15 PM 27.5 °F - 22.1 °F 80% 30.55 in 10.0 mi Calm Calm - N/A   Clear
8:35 PM 27.1 °F - 23.9 °F 88% 30.56 in 10.0 mi Calm Calm - N/A   Clear
8:55 PM 26.4 °F - 24.6 °F 93% 30.57 in 10.0 mi Calm Calm - N/A   Clear
9:15 PM 26.2 °F - 23.2 °F 88% 30.58 in 10.0 mi Calm Calm - N/A   Clear
9:35 PM 25.0 °F - 24.1 °F 96% 30.58 in 10.0 mi Calm Calm - N/A   Clear
9:55 PM 24.3 °F - 23.5 °F 97% 30.58 in 10.0 mi Calm Calm - N/A   Clear
10:10 PM 24.6 °F - 23.9 °F 97% 30.58 in 10.0 mi Calm Calm - N/A   Clear
10:35 PM 24.3 °F - 24.1 °F 99% 30.58 in 10.0 mi Calm Calm - N/A   Clear
10:55 PM 23.9 °F - 23.5 °F 99% 30.59 in 10.0 mi Calm Calm - N/A   Clear
11:15 PM 23.0 °F - 22.1 °F 96% 30.59 in 10.0 mi Calm Calm - N/A   Clear
11:35 PM 23.0 °F - 22.6 °F 99% 30.61 in 10.0 mi Calm Calm - N/A   Clear
11:55 PM 22.8 °F - 22.5 °F 99% 30.62 in 10.0 mi Calm Calm - N/A   Clear